sensor_id;sensor_type;location;lat;lon;timestamp;P1;durP1;ratioP1;P2;durP2;ratioP2
41309;SDS011;27057;51.438;-0.010;2023-11-25T00:01:20;11.68;;;2.97;;
41309;SDS011;27057;51.438;-0.010;2023-11-25T00:03:48;19.83;;;4.03;;
41309;SDS011;27057;51.438;-0.010;2023-11-25T00:06:16;19.35;;;3.20;;
41309;SDS011;27057;51.438;-0.010;2023-11-25T00:08:47;23.38;;;3.50;;
41309;SDS011;27057;51.438;-0.010;2023-11-25T00:11:14;21.45;;;2.88;;
41309;SDS011;27057;51.438;-0.010;2023-11-25T00:13:54;23.95;;;2.80;;
41309;SDS011;27057;51.438;-0.010;2023-11-25T00:16:21;22.88;;;4.15;;
41309;SDS011;27057;51.438;-0.010;2023-11-25T00:18:49;13.50;;;2.72;;
41309;SDS011;27057;51.438;-0.010;2023-11-25T00:21:16;11.35;;;3.35;;
41309;SDS011;27057;51.438;-0.010;2023-11-25T00:23:43;31.98;;;4.00;;
41309;SDS011;27057;51.438;-0.010;2023-11-25T00:26:11;21.25;;;2.72;;
41309;SDS011;27057;51.438;-0.010;2023-11-25T00:28:48;15.35;;;4.88;;
41309;SDS011;27057;51.438;-0.010;2023-11-25T00:31:16;14.65;;;3.20;;
41309;SDS011;27057;51.438;-0.010;2023-11-25T00:33:44;19.52;;;3.33;;
41309;SDS011;27057;51.438;-0.010;2023-11-25T00:36:11;16.95;;;3.95;;
41309;SDS011;27057;51.438;-0.010;2023-11-25T00:38:39;13.18;;;2.72;;
41309;SDS011;27057;51.438;-0.010;2023-11-25T00:41:06;22.17;;;3.88;;
41309;SDS011;27057;51.438;-0.010;2023-11-25T00:43:34;22.45;;;3.28;;
41309;SDS011;27057;51.438;-0.010;2023-11-25T00:46:01;9.32;;;2.30;;
41309;SDS011;27057;51.438;-0.010;2023-11-25T00:48:30;14.02;;;3.55;;
41309;SDS011;27057;51.438;-0.010;2023-11-25T00:51:02;9.98;;;2.30;;
41309;SDS011;27057;51.438;-0.010;2023-11-25T00:53:30;13.10;;;3.05;;
41309;SDS011;27057;51.438;-0.010;2023-11-25T00:55:57;12.15;;;3.13;;
41309;SDS011;27057;51.438;-0.010;2023-11-25T00:58:25;16.77;;;3.55;;
41309;SDS011;27057;51.438;-0.010;2023-11-25T01:00:53;31.27;;;7.75;;
41309;SDS011;27057;51.438;-0.010;2023-11-25T01:03:21;23.30;;;4.30;;
41309;SDS011;27057;51.438;-0.010;2023-11-25T01:05:51;22.83;;;3.70;;
41309;SDS011;27057;51.438;-0.010;2023-11-25T01:08:19;15.05;;;3.90;;
41309;SDS011;27057;51.438;-0.010;2023-11-25T01:10:48;19.70;;;3.50;;
41309;SDS011;27057;51.438;-0.010;2023-11-25T01:13:16;16.20;;;3.13;;
41309;SDS011;27057;51.438;-0.010;2023-11-25T01:15:43;22.88;;;3.30;;
41309;SDS011;27057;51.438;-0.010;2023-11-25T01:18:11;10.85;;;2.70;;
41309;SDS011;27057;51.438;-0.010;2023-11-25T01:20:38;17.83;;;3.40;;
41309;SDS011;27057;51.438;-0.010;2023-11-25T01:23:06;18.88;;;3.58;;
41309;SDS011;27057;51.438;-0.010;2023-11-25T01:25:33;16.50;;;3.47;;
41309;SDS011;27057;51.438;-0.010;2023-11-25T01:28:01;8.85;;;3.00;;
41309;SDS011;27057;51.438;-0.010;2023-11-25T01:30:30;16.33;;;3.38;;
41309;SDS011;27057;51.438;-0.010;2023-11-25T01:32:58;14.90;;;3.60;;
41309;SDS011;27057;51.438;-0.010;2023-11-25T01:35:25;17.00;;;3.08;;
41309;SDS011;27057;51.438;-0.010;2023-11-25T01:37:53;15.38;;;4.25;;
41309;SDS011;27057;51.438;-0.010;2023-11-25T01:40:21;15.52;;;4.30;;
41309;SDS011;27057;51.438;-0.010;2023-11-25T01:42:49;8.73;;;2.67;;
41309;SDS011;27057;51.438;-0.010;2023-11-25T01:45:17;19.20;;;3.60;;
41309;SDS011;27057;51.438;-0.010;2023-11-25T01:47:45;14.90;;;3.15;;
41309;SDS011;27057;51.438;-0.010;2023-11-25T01:50:12;16.10;;;3.47;;
41309;SDS011;27057;51.438;-0.010;2023-11-25T01:52:40;9.52;;;3.58;;
41309;SDS011;27057;51.438;-0.010;2023-11-25T01:55:08;20.67;;;4.30;;
41309;SDS011;27057;51.438;-0.010;2023-11-25T01:57:37;10.23;;;3.30;;
41309;SDS011;27057;51.438;-0.010;2023-11-25T02:00:05;26.05;;;4.35;;
41309;SDS011;27057;51.438;-0.010;2023-11-25T02:02:37;14.75;;;3.88;;
41309;SDS011;27057;51.438;-0.010;2023-11-25T02:05:08;19.67;;;4.43;;
41309;SDS011;27057;51.438;-0.010;2023-11-25T02:07:35;14.07;;;3.92;;
41309;SDS011;27057;51.438;-0.010;2023-11-25T02:10:03;18.83;;;5.32;;
41309;SDS011;27057;51.438;-0.010;2023-11-25T02:12:32;10.73;;;3.45;;
41309;SDS011;27057;51.438;-0.010;2023-11-25T02:15:01;19.52;;;3.72;;
41309;SDS011;27057;51.438;-0.010;2023-11-25T02:17:29;23.08;;;3.05;;
41309;SDS011;27057;51.438;-0.010;2023-11-25T02:19:57;12.43;;;3.50;;
41309;SDS011;27057;51.438;-0.010;2023-11-25T02:22:27;27.45;;;4.03;;
41309;SDS011;27057;51.438;-0.010;2023-11-25T02:24:55;16.80;;;4.38;;
41309;SDS011;27057;51.438;-0.010;2023-11-25T02:27:22;22.25;;;4.65;;
41309;SDS011;27057;51.438;-0.010;2023-11-25T02:29:51;23.48;;;3.88;;
41309;SDS011;27057;51.438;-0.010;2023-11-25T02:32:19;13.07;;;3.45;;
41309;SDS011;27057;51.438;-0.010;2023-11-25T02:34:47;12.40;;;3.38;;
41309;SDS011;27057;51.438;-0.010;2023-11-25T02:37:15;15.70;;;2.92;;
41309;SDS011;27057;51.438;-0.010;2023-11-25T02:39:43;17.55;;;3.55;;
41309;SDS011;27057;51.438;-0.010;2023-11-25T02:42:10;16.95;;;3.80;;
41309;SDS011;27057;51.438;-0.010;2023-11-25T02:44:39;18.38;;;4.13;;
41309;SDS011;27057;51.438;-0.010;2023-11-25T02:47:07;6.35;;;2.55;;
41309;SDS011;27057;51.438;-0.010;2023-11-25T02:49:35;13.95;;;2.92;;
41309;SDS011;27057;51.438;-0.010;2023-11-25T02:52:02;14.98;;;3.08;;
41309;SDS011;27057;51.438;-0.010;2023-11-25T02:54:31;11.20;;;2.95;;
41309;SDS011;27057;51.438;-0.010;2023-11-25T02:57:00;12.43;;;3.58;;
41309;SDS011;27057;51.438;-0.010;2023-11-25T02:59:27;10.98;;;3.38;;
41309;SDS011;27057;51.438;-0.010;2023-11-25T03:01:55;21.15;;;5.00;;
41309;SDS011;27057;51.438;-0.010;2023-11-25T03:04:25;10.00;;;3.03;;
41309;SDS011;27057;51.438;-0.010;2023-11-25T03:06:59;28.98;;;3.92;;
41309;SDS011;27057;51.438;-0.010;2023-11-25T03:09:31;12.57;;;2.90;;
41309;SDS011;27057;51.438;-0.010;2023-11-25T03:12:02;13.02;;;3.45;;
41309;SDS011;27057;51.438;-0.010;2023-11-25T03:14:30;11.13;;;2.85;;
41309;SDS011;27057;51.438;-0.010;2023-11-25T03:16:58;19.52;;;3.85;;
41309;SDS011;27057;51.438;-0.010;2023-11-25T03:19:26;16.73;;;3.13;;
41309;SDS011;27057;51.438;-0.010;2023-11-25T03:21:53;9.02;;;2.90;;
41309;SDS011;27057;51.438;-0.010;2023-11-25T03:24:21;22.67;;;3.58;;
41309;SDS011;27057;51.438;-0.010;2023-11-25T03:26:50;9.18;;;3.15;;
41309;SDS011;27057;51.438;-0.010;2023-11-25T03:29:18;15.20;;;3.67;;
41309;SDS011;27057;51.438;-0.010;2023-11-25T03:31:45;13.38;;;2.90;;
41309;SDS011;27057;51.438;-0.010;2023-11-25T03:34:13;18.17;;;3.33;;
41309;SDS011;27057;51.438;-0.010;2023-11-25T03:36:41;17.75;;;3.25;;
41309;SDS011;27057;51.438;-0.010;2023-11-25T03:39:08;5.30;;;2.75;;
41309;SDS011;27057;51.438;-0.010;2023-11-25T03:41:36;16.48;;;2.67;;
41309;SDS011;27057;51.438;-0.010;2023-11-25T03:44:05;22.13;;;3.25;;
41309;SDS011;27057;51.438;-0.010;2023-11-25T03:46:33;15.38;;;3.38;;
41309;SDS011;27057;51.438;-0.010;2023-11-25T03:49:00;21.27;;;3.53;;
41309;SDS011;27057;51.438;-0.010;2023-11-25T03:51:28;12.63;;;2.63;;
41309;SDS011;27057;51.438;-0.010;2023-11-25T03:53:56;9.60;;;2.85;;
41309;SDS011;27057;51.438;-0.010;2023-11-25T03:56:23;19.10;;;2.70;;
41309;SDS011;27057;51.438;-0.010;2023-11-25T03:58:52;19.40;;;3.72;;
41309;SDS011;27057;51.438;-0.010;2023-11-25T04:01:21;12.23;;;3.40;;
41309;SDS011;27057;51.438;-0.010;2023-11-25T04:03:48;6.07;;;2.75;;
41309;SDS011;27057;51.438;-0.010;2023-11-25T04:06:16;18.92;;;3.42;;
41309;SDS011;27057;51.438;-0.010;2023-11-25T04:08:43;17.38;;;3.10;;
41309;SDS011;27057;51.438;-0.010;2023-11-25T04:11:11;7.10;;;2.08;;
41309;SDS011;27057;51.438;-0.010;2023-11-25T04:13:39;15.10;;;2.55;;
41309;SDS011;27057;51.438;-0.010;2023-11-25T04:16:06;9.90;;;2.40;;
41309;SDS011;27057;51.438;-0.010;2023-11-25T04:18:34;19.05;;;2.55;;
41309;SDS011;27057;51.438;-0.010;2023-11-25T04:21:04;13.60;;;2.30;;
41309;SDS011;27057;51.438;-0.010;2023-11-25T04:23:32;9.02;;;2.83;;
41309;SDS011;27057;51.438;-0.010;2023-11-25T04:26:00;11.15;;;3.15;;
41309;SDS011;27057;51.438;-0.010;2023-11-25T04:28:29;12.13;;;3.88;;
41309;SDS011;27057;51.438;-0.010;2023-11-25T04:30:56;14.98;;;3.20;;
41309;SDS011;27057;51.438;-0.010;2023-11-25T04:33:25;11.10;;;3.83;;
41309;SDS011;27057;51.438;-0.010;2023-11-25T04:35:52;12.88;;;3.83;;
41309;SDS011;27057;51.438;-0.010;2023-11-25T04:38:20;18.30;;;3.22;;
41309;SDS011;27057;51.438;-0.010;2023-11-25T04:40:47;9.00;;;3.33;;
41309;SDS011;27057;51.438;-0.010;2023-11-25T04:43:15;20.38;;;2.83;;
41309;SDS011;27057;51.438;-0.010;2023-11-25T04:45:42;15.23;;;3.65;;
41309;SDS011;27057;51.438;-0.010;2023-11-25T04:48:10;28.58;;;4.18;;
41309;SDS011;27057;51.438;-0.010;2023-11-25T04:50:38;9.73;;;3.20;;
41309;SDS011;27057;51.438;-0.010;2023-11-25T04:53:08;4.63;;;2.47;;
41309;SDS011;27057;51.438;-0.010;2023-11-25T04:55:35;10.70;;;3.35;;
41309;SDS011;27057;51.438;-0.010;2023-11-25T04:58:03;16.63;;;4.47;;
41309;SDS011;27057;51.438;-0.010;2023-11-25T05:00:30;15.98;;;3.55;;
41309;SDS011;27057;51.438;-0.010;2023-11-25T05:02:58;13.93;;;4.28;;
41309;SDS011;27057;51.438;-0.010;2023-11-25T05:05:25;8.73;;;2.05;;
41309;SDS011;27057;51.438;-0.010;2023-11-25T05:07:52;14.63;;;3.42;;
41309;SDS011;27057;51.438;-0.010;2023-11-25T05:10:20;16.48;;;4.00;;
41309;SDS011;27057;51.438;-0.010;2023-11-25T05:12:48;12.68;;;2.60;;
41309;SDS011;27057;51.438;-0.010;2023-11-25T05:15:17;14.40;;;3.65;;
41309;SDS011;27057;51.438;-0.010;2023-11-25T05:17:45;10.95;;;3.13;;
41309;SDS011;27057;51.438;-0.010;2023-11-25T05:20:13;19.17;;;4.57;;
41309;SDS011;27057;51.438;-0.010;2023-11-25T05:22:43;18.13;;;3.88;;
41309;SDS011;27057;51.438;-0.010;2023-11-25T05:25:11;15.55;;;3.63;;
41309;SDS011;27057;51.438;-0.010;2023-11-25T05:27:43;24.77;;;4.10;;
41309;SDS011;27057;51.438;-0.010;2023-11-25T05:30:10;10.77;;;3.90;;
41309;SDS011;27057;51.438;-0.010;2023-11-25T05:32:41;13.23;;;3.53;;
41309;SDS011;27057;51.438;-0.010;2023-11-25T05:35:10;8.55;;;3.00;;
41309;SDS011;27057;51.438;-0.010;2023-11-25T05:37:40;13.25;;;3.28;;
41309;SDS011;27057;51.438;-0.010;2023-11-25T05:40:10;14.05;;;2.95;;
41309;SDS011;27057;51.438;-0.010;2023-11-25T05:42:38;9.10;;;2.90;;
41309;SDS011;27057;51.438;-0.010;2023-11-25T05:45:09;13.60;;;2.53;;
41309;SDS011;27057;51.438;-0.010;2023-11-25T05:47:37;15.82;;;4.20;;
41309;SDS011;27057;51.438;-0.010;2023-11-25T05:50:05;18.85;;;3.90;;
41309;SDS011;27057;51.438;-0.010;2023-11-25T05:52:33;22.58;;;3.95;;
41309;SDS011;27057;51.438;-0.010;2023-11-25T05:55:00;7.63;;;2.85;;
41309;SDS011;27057;51.438;-0.010;2023-11-25T05:57:28;11.45;;;2.67;;
41309;SDS011;27057;51.438;-0.010;2023-11-25T05:59:55;6.78;;;2.95;;
41309;SDS011;27057;51.438;-0.010;2023-11-25T06:02:23;13.50;;;3.75;;
41309;SDS011;27057;51.438;-0.010;2023-11-25T06:04:50;13.90;;;4.15;;
41309;SDS011;27057;51.438;-0.010;2023-11-25T06:07:18;10.27;;;3.33;;
41309;SDS011;27057;51.438;-0.010;2023-11-25T06:09:45;14.18;;;3.25;;
41309;SDS011;27057;51.438;-0.010;2023-11-25T06:12:12;12.90;;;4.15;;
41309;SDS011;27057;51.438;-0.010;2023-11-25T06:14:40;10.30;;;3.10;;
41309;SDS011;27057;51.438;-0.010;2023-11-25T06:17:07;10.52;;;3.00;;
41309;SDS011;27057;51.438;-0.010;2023-11-25T06:19:35;14.55;;;3.10;;
41309;SDS011;27057;51.438;-0.010;2023-11-25T06:22:03;14.18;;;3.75;;
41309;SDS011;27057;51.438;-0.010;2023-11-25T06:24:31;18.13;;;3.55;;
41309;SDS011;27057;51.438;-0.010;2023-11-25T06:26:58;18.10;;;3.90;;
41309;SDS011;27057;51.438;-0.010;2023-11-25T06:29:26;16.20;;;3.33;;
41309;SDS011;27057;51.438;-0.010;2023-11-25T06:31:53;8.75;;;2.83;;
41309;SDS011;27057;51.438;-0.010;2023-11-25T06:34:21;8.82;;;2.60;;
41309;SDS011;27057;51.438;-0.010;2023-11-25T06:36:49;16.55;;;4.55;;
41309;SDS011;27057;51.438;-0.010;2023-11-25T06:39:17;10.07;;;2.92;;
41309;SDS011;27057;51.438;-0.010;2023-11-25T06:41:49;15.60;;;4.00;;
41309;SDS011;27057;51.438;-0.010;2023-11-25T06:44:17;14.77;;;4.13;;
41309;SDS011;27057;51.438;-0.010;2023-11-25T06:46:44;14.00;;;3.05;;
41309;SDS011;27057;51.438;-0.010;2023-11-25T06:49:13;19.15;;;4.10;;
41309;SDS011;27057;51.438;-0.010;2023-11-25T06:51:41;15.98;;;4.03;;
41309;SDS011;27057;51.438;-0.010;2023-11-25T06:54:09;10.38;;;3.53;;
41309;SDS011;27057;51.438;-0.010;2023-11-25T06:56:37;15.88;;;3.50;;
41309;SDS011;27057;51.438;-0.010;2023-11-25T06:59:07;18.92;;;3.65;;
41309;SDS011;27057;51.438;-0.010;2023-11-25T07:01:35;13.75;;;3.25;;
41309;SDS011;27057;51.438;-0.010;2023-11-25T07:04:03;10.00;;;4.05;;
41309;SDS011;27057;51.438;-0.010;2023-11-25T07:06:34;9.98;;;3.25;;
41309;SDS011;27057;51.438;-0.010;2023-11-25T07:09:01;27.65;;;5.00;;
41309;SDS011;27057;51.438;-0.010;2023-11-25T07:11:32;22.58;;;3.15;;
41309;SDS011;27057;51.438;-0.010;2023-11-25T07:14:00;8.18;;;2.90;;
41309;SDS011;27057;51.438;-0.010;2023-11-25T07:16:28;16.10;;;4.90;;
41309;SDS011;27057;51.438;-0.010;2023-11-25T07:18:55;12.90;;;3.20;;
41309;SDS011;27057;51.438;-0.010;2023-11-25T07:21:23;17.67;;;3.55;;
41309;SDS011;27057;51.438;-0.010;2023-11-25T07:23:51;5.65;;;2.53;;
41309;SDS011;27057;51.438;-0.010;2023-11-25T07:26:18;16.23;;;3.47;;
41309;SDS011;27057;51.438;-0.010;2023-11-25T07:28:46;11.68;;;3.10;;
41309;SDS011;27057;51.438;-0.010;2023-11-25T07:31:14;24.50;;;4.07;;
41309;SDS011;27057;51.438;-0.010;2023-11-25T07:33:41;24.95;;;3.55;;
41309;SDS011;27057;51.438;-0.010;2023-11-25T07:36:09;8.90;;;3.28;;
41309;SDS011;27057;51.438;-0.010;2023-11-25T07:38:37;23.92;;;4.43;;
41309;SDS011;27057;51.438;-0.010;2023-11-25T07:41:05;19.73;;;4.30;;
41309;SDS011;27057;51.438;-0.010;2023-11-25T07:43:32;14.23;;;3.60;;
41309;SDS011;27057;51.438;-0.010;2023-11-25T07:46:00;15.60;;;3.78;;
41309;SDS011;27057;51.438;-0.010;2023-11-25T07:48:28;27.58;;;5.05;;
41309;SDS011;27057;51.438;-0.010;2023-11-25T07:50:55;10.32;;;3.35;;
41309;SDS011;27057;51.438;-0.010;2023-11-25T07:53:23;23.48;;;4.63;;
41309;SDS011;27057;51.438;-0.010;2023-11-25T07:55:51;19.38;;;4.32;;
41309;SDS011;27057;51.438;-0.010;2023-11-25T07:58:19;19.77;;;4.53;;
41309;SDS011;27057;51.438;-0.010;2023-11-25T08:00:47;23.65;;;5.63;;
41309;SDS011;27057;51.438;-0.010;2023-11-25T08:03:14;28.15;;;5.90;;
41309;SDS011;27057;51.438;-0.010;2023-11-25T08:05:41;16.58;;;4.43;;
41309;SDS011;27057;51.438;-0.010;2023-11-25T08:08:09;11.85;;;4.05;;
41309;SDS011;27057;51.438;-0.010;2023-11-25T08:10:38;25.20;;;5.95;;
41309;SDS011;27057;51.438;-0.010;2023-11-25T08:13:05;9.68;;;4.15;;
41309;SDS011;27057;51.438;-0.010;2023-11-25T08:15:32;26.80;;;5.15;;
41309;SDS011;27057;51.438;-0.010;2023-11-25T08:18:00;21.20;;;5.15;;
41309;SDS011;27057;51.438;-0.010;2023-11-25T08:20:28;13.68;;;4.15;;
41309;SDS011;27057;51.438;-0.010;2023-11-25T08:22:55;23.70;;;5.53;;
41309;SDS011;27057;51.438;-0.010;2023-11-25T08:25:23;16.83;;;5.75;;
41309;SDS011;27057;51.438;-0.010;2023-11-25T08:27:50;15.80;;;4.93;;
41309;SDS011;27057;51.438;-0.010;2023-11-25T08:30:18;20.48;;;5.75;;
41309;SDS011;27057;51.438;-0.010;2023-11-25T08:32:45;131.85;;;16.92;;
41309;SDS011;27057;51.438;-0.010;2023-11-25T08:35:13;43.28;;;7.93;;
41309;SDS011;27057;51.438;-0.010;2023-11-25T08:37:40;75.43;;;11.88;;
41309;SDS011;27057;51.438;-0.010;2023-11-25T08:40:09;56.72;;;8.05;;
41309;SDS011;27057;51.438;-0.010;2023-11-25T08:42:43;37.83;;;5.88;;
41309;SDS011;27057;51.438;-0.010;2023-11-25T08:45:12;38.22;;;9.30;;
41309;SDS011;27057;51.438;-0.010;2023-11-25T08:47:39;26.63;;;6.18;;
41309;SDS011;27057;51.438;-0.010;2023-11-25T08:50:09;28.45;;;7.15;;
41309;SDS011;27057;51.438;-0.010;2023-11-25T08:52:42;12.18;;;5.63;;
41309;SDS011;27057;51.438;-0.010;2023-11-25T08:55:11;20.63;;;4.15;;
41309;SDS011;27057;51.438;-0.010;2023-11-25T08:57:44;24.15;;;5.82;;
41309;SDS011;27057;51.438;-0.010;2023-11-25T09:00:12;18.90;;;4.50;;
41309;SDS011;27057;51.438;-0.010;2023-11-25T09:02:47;17.27;;;4.65;;
41309;SDS011;27057;51.438;-0.010;2023-11-25T09:05:17;15.88;;;3.75;;
41309;SDS011;27057;51.438;-0.010;2023-11-25T09:07:49;16.55;;;3.88;;
41309;SDS011;27057;51.438;-0.010;2023-11-25T09:10:17;20.27;;;4.82;;
41309;SDS011;27057;51.438;-0.010;2023-11-25T09:12:46;16.77;;;4.63;;
41309;SDS011;27057;51.438;-0.010;2023-11-25T09:15:14;18.63;;;4.80;;
41309;SDS011;27057;51.438;-0.010;2023-11-25T09:17:41;19.50;;;6.13;;
41309;SDS011;27057;51.438;-0.010;2023-11-25T09:20:11;25.77;;;5.38;;
41309;SDS011;27057;51.438;-0.010;2023-11-25T09:22:39;20.25;;;5.43;;
41309;SDS011;27057;51.438;-0.010;2023-11-25T09:25:08;31.98;;;8.95;;
41309;SDS011;27057;51.438;-0.010;2023-11-25T09:27:37;35.53;;;10.65;;
41309;SDS011;27057;51.438;-0.010;2023-11-25T09:30:05;18.17;;;5.55;;
41309;SDS011;27057;51.438;-0.010;2023-11-25T09:32:38;22.52;;;6.72;;
41309;SDS011;27057;51.438;-0.010;2023-11-25T09:35:07;26.40;;;6.93;;
41309;SDS011;27057;51.438;-0.010;2023-11-25T09:37:38;13.10;;;4.97;;
41309;SDS011;27057;51.438;-0.010;2023-11-25T09:40:06;22.50;;;4.85;;
41309;SDS011;27057;51.438;-0.010;2023-11-25T09:42:41;25.10;;;4.82;;
41309;SDS011;27057;51.438;-0.010;2023-11-25T09:45:10;14.60;;;4.75;;
41309;SDS011;27057;51.438;-0.010;2023-11-25T09:47:39;17.02;;;4.90;;
41309;SDS011;27057;51.438;-0.010;2023-11-25T09:50:10;19.90;;;6.15;;
41309;SDS011;27057;51.438;-0.010;2023-11-25T09:52:56;14.60;;;3.30;;
41309;SDS011;27057;51.438;-0.010;2023-11-25T09:55:31;27.60;;;5.25;;
41309;SDS011;27057;51.438;-0.010;2023-11-25T09:58:02;30.15;;;5.68;;
41309;SDS011;27057;51.438;-0.010;2023-11-25T10:00:35;14.75;;;4.65;;
41309;SDS011;27057;51.438;-0.010;2023-11-25T10:03:07;18.70;;;4.63;;
41309;SDS011;27057;51.438;-0.010;2023-11-25T10:05:37;42.05;;;5.90;;
41309;SDS011;27057;51.438;-0.010;2023-11-25T10:08:04;15.25;;;4.07;;
41309;SDS011;27057;51.438;-0.010;2023-11-25T10:10:33;15.50;;;4.68;;
41309;SDS011;27057;51.438;-0.010;2023-11-25T10:13:01;14.35;;;5.15;;
41309;SDS011;27057;51.438;-0.010;2023-11-25T10:15:30;19.65;;;4.35;;
41309;SDS011;27057;51.438;-0.010;2023-11-25T10:17:58;16.90;;;4.40;;
41309;SDS011;27057;51.438;-0.010;2023-11-25T10:20:25;31.88;;;4.90;;
41309;SDS011;27057;51.438;-0.010;2023-11-25T10:22:53;18.90;;;5.38;;
41309;SDS011;27057;51.438;-0.010;2023-11-25T10:25:25;11.90;;;5.53;;
41309;SDS011;27057;51.438;-0.010;2023-11-25T10:27:54;16.58;;;5.38;;
41309;SDS011;27057;51.438;-0.010;2023-11-25T10:30:22;24.38;;;5.07;;
41309;SDS011;27057;51.438;-0.010;2023-11-25T10:32:51;14.55;;;5.15;;
41309;SDS011;27057;51.438;-0.010;2023-11-25T10:35:21;24.95;;;5.75;;
41309;SDS011;27057;51.438;-0.010;2023-11-25T10:37:52;29.48;;;5.60;;
41309;SDS011;27057;51.438;-0.010;2023-11-25T10:40:20;37.95;;;6.35;;
41309;SDS011;27057;51.438;-0.010;2023-11-25T10:42:49;12.73;;;4.50;;
41309;SDS011;27057;51.438;-0.010;2023-11-25T10:45:17;16.08;;;5.05;;
41309;SDS011;27057;51.438;-0.010;2023-11-25T10:47:45;14.90;;;4.78;;
41309;SDS011;27057;51.438;-0.010;2023-11-25T10:50:14;18.55;;;5.00;;
41309;SDS011;27057;51.438;-0.010;2023-11-25T10:52:41;13.45;;;4.85;;
41309;SDS011;27057;51.438;-0.010;2023-11-25T10:55:10;20.90;;;6.20;;
41309;SDS011;27057;51.438;-0.010;2023-11-25T10:57:38;18.75;;;4.50;;
41309;SDS011;27057;51.438;-0.010;2023-11-25T11:00:07;21.65;;;5.22;;
41309;SDS011;27057;51.438;-0.010;2023-11-25T11:02:47;21.75;;;3.92;;
41309;SDS011;27057;51.438;-0.010;2023-11-25T11:05:20;16.20;;;4.43;;
41309;SDS011;27057;51.438;-0.010;2023-11-25T11:07:56;17.42;;;4.35;;
41309;SDS011;27057;51.438;-0.010;2023-11-25T11:10:35;16.17;;;4.25;;
41309;SDS011;27057;51.438;-0.010;2023-11-25T11:13:09;17.25;;;4.45;;
41309;SDS011;27057;51.438;-0.010;2023-11-25T11:15:37;25.50;;;4.40;;
41309;SDS011;27057;51.438;-0.010;2023-11-25T11:18:17;14.13;;;3.63;;
41309;SDS011;27057;51.438;-0.010;2023-11-25T11:20:53;12.05;;;3.63;;
41309;SDS011;27057;51.438;-0.010;2023-11-25T11:23:22;16.08;;;3.90;;
41309;SDS011;27057;51.438;-0.010;2023-11-25T11:28:31;16.70;;;3.72;;
41309;SDS011;27057;51.438;-0.010;2023-11-25T11:34:03;16.75;;;3.30;;
41309;SDS011;27057;51.438;-0.010;2023-11-25T11:36:31;10.93;;;3.30;;
41309;SDS011;27057;51.438;-0.010;2023-11-25T11:38:59;29.00;;;3.70;;
41309;SDS011;27057;51.438;-0.010;2023-11-25T11:41:28;11.73;;;3.35;;
41309;SDS011;27057;51.438;-0.010;2023-11-25T11:44:03;17.10;;;3.10;;
41309;SDS011;27057;51.438;-0.010;2023-11-25T11:46:37;16.63;;;3.15;;
41309;SDS011;27057;51.438;-0.010;2023-11-25T11:49:08;15.85;;;3.20;;
41309;SDS011;27057;51.438;-0.010;2023-11-25T11:54:27;18.65;;;4.13;;
41309;SDS011;27057;51.438;-0.010;2023-11-25T12:02:30;16.42;;;3.95;;
41309;SDS011;27057;51.438;-0.010;2023-11-25T12:04:59;15.23;;;3.15;;
41309;SDS011;27057;51.438;-0.010;2023-11-25T12:07:28;9.55;;;1.92;;
41309;SDS011;27057;51.438;-0.010;2023-11-25T12:09:57;13.88;;;2.47;;
41309;SDS011;27057;51.438;-0.010;2023-11-25T12:12:24;10.95;;;2.72;;
41309;SDS011;27057;51.438;-0.010;2023-11-25T12:14:51;7.18;;;2.17;;
41309;SDS011;27057;51.438;-0.010;2023-11-25T12:17:21;13.13;;;2.03;;
41309;SDS011;27057;51.438;-0.010;2023-11-25T12:19:51;15.02;;;2.97;;
41309;SDS011;27057;51.438;-0.010;2023-11-25T12:22:20;8.55;;;2.17;;
41309;SDS011;27057;51.438;-0.010;2023-11-25T12:24:49;22.30;;;2.55;;
41309;SDS011;27057;51.438;-0.010;2023-11-25T12:27:17;8.75;;;2.78;;
41309;SDS011;27057;51.438;-0.010;2023-11-25T12:29:47;9.38;;;2.35;;
41309;SDS011;27057;51.438;-0.010;2023-11-25T12:32:16;14.98;;;3.22;;
41309;SDS011;27057;51.438;-0.010;2023-11-25T12:34:44;10.32;;;3.17;;
41309;SDS011;27057;51.438;-0.010;2023-11-25T12:37:12;7.72;;;2.28;;
41309;SDS011;27057;51.438;-0.010;2023-11-25T12:39:40;9.25;;;2.38;;
41309;SDS011;27057;51.438;-0.010;2023-11-25T12:42:08;6.95;;;2.10;;
41309;SDS011;27057;51.438;-0.010;2023-11-25T12:44:50;10.10;;;2.58;;
41309;SDS011;27057;51.438;-0.010;2023-11-25T12:47:17;18.25;;;2.90;;
41309;SDS011;27057;51.438;-0.010;2023-11-25T12:49:46;8.50;;;2.70;;
41309;SDS011;27057;51.438;-0.010;2023-11-25T12:52:19;8.98;;;1.85;;
41309;SDS011;27057;51.438;-0.010;2023-11-25T12:54:50;10.10;;;2.55;;
41309;SDS011;27057;51.438;-0.010;2023-11-25T12:57:23;12.70;;;2.47;;
41309;SDS011;27057;51.438;-0.010;2023-11-25T12:59:52;10.57;;;2.80;;
41309;SDS011;27057;51.438;-0.010;2023-11-25T13:02:22;17.45;;;2.75;;
41309;SDS011;27057;51.438;-0.010;2023-11-25T13:04:52;7.72;;;2.13;;
41309;SDS011;27057;51.438;-0.010;2023-11-25T13:07:30;14.93;;;2.20;;
41309;SDS011;27057;51.438;-0.010;2023-11-25T13:09:59;14.80;;;2.63;;
41309;SDS011;27057;51.438;-0.010;2023-11-25T13:12:27;8.43;;;2.40;;
41309;SDS011;27057;51.438;-0.010;2023-11-25T13:14:55;9.20;;;2.28;;
41309;SDS011;27057;51.438;-0.010;2023-11-25T13:17:24;10.05;;;2.72;;
41309;SDS011;27057;51.438;-0.010;2023-11-25T13:19:52;8.65;;;2.00;;
41309;SDS011;27057;51.438;-0.010;2023-11-25T13:22:20;5.93;;;1.92;;
41309;SDS011;27057;51.438;-0.010;2023-11-25T13:24:47;14.05;;;2.53;;
41309;SDS011;27057;51.438;-0.010;2023-11-25T13:27:15;11.68;;;2.28;;
41309;SDS011;27057;51.438;-0.010;2023-11-25T13:29:44;13.02;;;2.67;;
41309;SDS011;27057;51.438;-0.010;2023-11-25T13:32:13;14.18;;;2.53;;
41309;SDS011;27057;51.438;-0.010;2023-11-25T13:34:43;10.55;;;2.45;;
41309;SDS011;27057;51.438;-0.010;2023-11-25T13:37:10;15.73;;;3.15;;
41309;SDS011;27057;51.438;-0.010;2023-11-25T13:39:38;10.52;;;2.55;;
41309;SDS011;27057;51.438;-0.010;2023-11-25T13:42:06;7.90;;;2.30;;
41309;SDS011;27057;51.438;-0.010;2023-11-25T13:44:34;13.38;;;2.40;;
41309;SDS011;27057;51.438;-0.010;2023-11-25T13:47:02;11.02;;;1.90;;
41309;SDS011;27057;51.438;-0.010;2023-11-25T13:49:29;5.32;;;1.90;;
41309;SDS011;27057;51.438;-0.010;2023-11-25T13:51:59;8.07;;;2.92;;
41309;SDS011;27057;51.438;-0.010;2023-11-25T13:54:27;6.28;;;1.95;;
41309;SDS011;27057;51.438;-0.010;2023-11-25T13:56:56;11.50;;;2.08;;
41309;SDS011;27057;51.438;-0.010;2023-11-25T13:59:23;9.73;;;2.50;;
41309;SDS011;27057;51.438;-0.010;2023-11-25T14:01:51;9.88;;;2.65;;
41309;SDS011;27057;51.438;-0.010;2023-11-25T14:04:19;6.45;;;2.17;;
41309;SDS011;27057;51.438;-0.010;2023-11-25T14:06:50;8.65;;;2.65;;
41309;SDS011;27057;51.438;-0.010;2023-11-25T14:09:18;6.82;;;2.47;;
41309;SDS011;27057;51.438;-0.010;2023-11-25T14:11:46;8.77;;;2.13;;
41309;SDS011;27057;51.438;-0.010;2023-11-25T14:14:13;6.47;;;2.00;;
41309;SDS011;27057;51.438;-0.010;2023-11-25T14:16:46;11.05;;;2.22;;
41309;SDS011;27057;51.438;-0.010;2023-11-25T14:19:15;5.82;;;1.73;;
41309;SDS011;27057;51.438;-0.010;2023-11-25T14:21:44;6.57;;;1.70;;
41309;SDS011;27057;51.438;-0.010;2023-11-25T14:24:11;5.22;;;2.05;;
41309;SDS011;27057;51.438;-0.010;2023-11-25T14:26:39;15.32;;;2.45;;
41309;SDS011;27057;51.438;-0.010;2023-11-25T14:29:06;15.10;;;2.65;;
41309;SDS011;27057;51.438;-0.010;2023-11-25T14:31:33;8.57;;;2.65;;
41309;SDS011;27057;51.438;-0.010;2023-11-25T14:34:01;10.27;;;2.65;;
41309;SDS011;27057;51.438;-0.010;2023-11-25T14:36:28;10.13;;;2.50;;
41309;SDS011;27057;51.438;-0.010;2023-11-25T14:38:57;12.82;;;3.28;;
41309;SDS011;27057;51.438;-0.010;2023-11-25T14:41:24;9.85;;;2.30;;
41309;SDS011;27057;51.438;-0.010;2023-11-25T14:43:52;7.38;;;2.58;;
41309;SDS011;27057;51.438;-0.010;2023-11-25T14:46:20;10.40;;;2.25;;